createdAt,value
2024-01-19T00:00:27.375Z,5.95
2024-01-19T00:01:29.219Z,4.07
2024-01-19T00:02:32.106Z,4.88
2024-01-19T00:03:34.004Z,5.05
2024-01-19T00:04:36.924Z,4.22
2024-01-19T00:05:38.900Z,5.10
2024-01-19T00:06:41.841Z,5.00
2024-01-19T00:07:43.749Z,4.60
2024-01-19T00:08:45.690Z,4.28
2024-01-19T00:09:48.501Z,5.03
2024-01-19T00:10:53.186Z,4.93
2024-01-19T00:11:56.161Z,4.25
2024-01-19T00:12:58.220Z,4.22
2024-01-19T00:14:00.222Z,4.75
2024-01-19T00:15:03.355Z,4.72
2024-01-19T00:16:05.288Z,4.90
2024-01-19T00:17:08.155Z,4.22
2024-01-19T00:18:10.887Z,4.82
2024-01-19T00:19:13.977Z,5.03
2024-01-19T00:20:16.163Z,4.30
2024-01-19T00:21:19.180Z,3.97
2024-01-19T00:22:21.015Z,3.85
2024-01-19T00:23:23.911Z,4.40
2024-01-19T00:24:25.860Z,4.15
2024-01-19T00:25:28.983Z,4.40
2024-01-19T00:26:32.461Z,3.95
2024-01-19T00:27:35.422Z,3.90
2024-01-19T00:28:37.333Z,4.32
2024-01-19T00:29:40.821Z,4.78
2024-01-19T00:30:42.705Z,3.92
2024-01-19T00:31:47.614Z,4.75
2024-01-19T00:32:49.578Z,4.65
2024-01-19T00:33:52.481Z,4.25
2024-01-19T00:34:54.405Z,4.70
2024-01-19T00:35:57.322Z,4.72
2024-01-19T00:36:59.239Z,4.78
2024-01-19T00:38:02.111Z,4.57
2024-01-19T00:39:05.181Z,4.03
2024-01-19T00:40:13.051Z,4.55
2024-01-19T00:41:16.123Z,4.00
2024-01-19T00:42:20.506Z,3.53
2024-01-19T00:43:22.313Z,4.88
2024-01-19T00:44:25.181Z,4.30
2024-01-19T00:45:27.203Z,4.30
2024-01-19T00:46:30.755Z,5.07
2024-01-19T00:47:34.201Z,3.95
2024-01-19T00:48:37.179Z,3.63
2024-01-19T00:49:39.182Z,4.75
2024-01-19T00:50:42.201Z,4.10
2024-01-19T00:51:45.757Z,4.35
2024-01-19T00:52:48.675Z,3.90
2024-01-19T00:53:50.801Z,3.78
2024-01-19T00:54:54.968Z,4.25
2024-01-19T00:55:56.885Z,3.40
2024-01-19T00:56:59.878Z,3.90
2024-01-19T00:58:03.210Z,4.20
2024-01-19T00:59:06.126Z,3.92
2024-01-19T01:00:10.074Z,3.38
2024-01-19T01:01:13.800Z,3.85
2024-01-19T01:02:15.826Z,3.47
2024-01-19T01:03:24.433Z,3.70
2024-01-19T01:04:26.430Z,4.00
2024-01-19T01:05:29.727Z,3.70
2024-01-19T01:06:33.372Z,3.17
2024-01-19T01:07:36.808Z,3.50
2024-01-19T01:08:38.828Z,2.97
2024-01-19T01:09:41.805Z,2.95
2024-01-19T01:10:44.621Z,3.60
2024-01-19T01:11:47.596Z,2.88
2024-01-19T01:12:49.648Z,3.47
2024-01-19T01:13:53.853Z,3.25
2024-01-19T01:14:55.842Z,3.75
2024-01-19T01:15:58.722Z,3.10
2024-01-19T01:17:01.155Z,3.22
2024-01-19T01:18:06.290Z,3.15
2024-01-19T01:19:08.660Z,2.65
2024-01-19T01:20:13.361Z,3.53
2024-01-19T01:21:15.307Z,3.60
2024-01-19T01:22:51.542Z,3.65
2024-01-19T01:23:53.751Z,3.35
2024-01-19T01:24:56.641Z,2.95
2024-01-19T01:25:58.567Z,3.08
2024-01-19T01:27:00.479Z,3.05
2024-01-19T01:28:03.527Z,3.05
2024-01-19T01:29:06.826Z,3.45
2024-01-19T01:30:11.051Z,3.08
2024-01-19T01:31:12.948Z,3.03
2024-01-19T01:32:15.830Z,3.05
2024-01-19T01:33:17.784Z,3.92
2024-01-19T01:34:20.713Z,3.53
2024-01-19T01:35:22.585Z,3.70
2024-01-19T01:36:25.457Z,3.45
2024-01-19T01:37:27.266Z,3.80
2024-01-19T01:38:29.181Z,4.20
2024-01-19T01:39:31.992Z,3.67
2024-01-19T01:40:34.050Z,3.78
2024-01-19T01:41:37.494Z,3.08
2024-01-19T01:42:39.426Z,3.42
2024-01-19T01:43:42.273Z,4.28
2024-01-19T01:44:45.533Z,3.47
2024-01-19T01:45:48.430Z,2.55
2024-01-19T01:46:50.358Z,3.05
2024-01-19T01:47:52.314Z,3.53
2024-01-19T01:48:55.856Z,4.03
2024-01-19T01:49:57.978Z,2.90
2024-01-19T01:51:01.375Z,3.17
2024-01-19T01:52:03.742Z,3.78
2024-01-19T01:53:25.522Z,3.53
2024-01-19T01:54:27.628Z,3.10
2024-01-19T01:55:30.699Z,3.17
2024-01-19T01:56:34.249Z,3.35
2024-01-19T01:57:37.323Z,3.05
2024-01-19T01:58:39.250Z,3.05
2024-01-19T01:59:42.791Z,3.45
2024-01-19T02:00:46.854Z,3.08
2024-01-19T02:01:50.599Z,3.30
2024-01-19T02:02:53.702Z,3.60
2024-01-19T02:03:58.433Z,3.35
2024-01-19T02:05:00.793Z,2.88
2024-01-19T02:06:03.913Z,2.95
2024-01-19T02:07:06.252Z,3.00
2024-01-19T02:08:09.660Z,3.30
2024-01-19T02:09:11.802Z,2.83
2024-01-19T02:10:14.803Z,3.35
2024-01-19T02:11:16.801Z,2.83
2024-01-19T02:12:20.074Z,3.05
2024-01-19T02:13:22.019Z,2.70
2024-01-19T02:14:23.907Z,2.67
2024-01-19T02:15:27.630Z,2.78
2024-01-19T02:16:31.041Z,2.83
2024-01-19T02:17:34.061Z,2.75
2024-01-19T02:18:36.021Z,3.00
2024-01-19T02:19:38.230Z,3.53
2024-01-19T02:20:41.242Z,2.90
2024-01-19T02:21:43.233Z,3.10
2024-01-19T02:22:47.561Z,3.40
2024-01-19T02:23:55.542Z,3.60
2024-01-19T02:24:59.820Z,2.70
2024-01-19T02:27:36.752Z,2.55
2024-01-19T02:28:38.682Z,3.00
2024-01-19T02:29:41.546Z,3.17
2024-01-19T02:30:45.924Z,3.58
2024-01-19T02:31:48.786Z,2.50
2024-01-19T02:32:50.735Z,3.55
2024-01-19T02:33:53.752Z,2.90
2024-01-19T02:34:55.706Z,2.88
2024-01-19T02:35:58.620Z,3.08
2024-01-19T02:37:00.617Z,2.83
2024-01-19T02:38:03.558Z,3.00
2024-01-19T02:39:06.367Z,2.25
2024-01-19T02:40:11.665Z,2.95
2024-01-19T02:41:13.551Z,2.65
2024-01-19T02:42:16.587Z,3.30
2024-01-19T02:43:18.504Z,3.50
2024-01-19T02:44:21.336Z,3.38
2024-01-19T02:45:23.209Z,3.13
2024-01-19T02:46:26.151Z,3.03
2024-01-19T02:47:28.284Z,3.05
2024-01-19T02:48:30.445Z,2.78
2024-01-19T02:49:33.599Z,3.33
2024-01-19T02:50:35.552Z,3.17
2024-01-19T02:51:38.442Z,3.03
2024-01-19T02:52:40.288Z,2.60
2024-01-19T02:53:43.219Z,3.28
2024-01-19T02:54:45.060Z,2.60
2024-01-19T02:55:49.320Z,3.10
2024-01-19T02:56:51.298Z,2.70
2024-01-19T02:57:53.197Z,3.42
2024-01-19T02:58:56.003Z,2.83
2024-01-19T02:59:58.174Z,3.47
2024-01-19T03:01:01.781Z,2.88
2024-01-19T03:02:04.088Z,3.40
2024-01-19T03:03:07.414Z,2.50
2024-01-19T03:04:09.343Z,2.97
2024-01-19T03:05:12.251Z,3.80
2024-01-19T03:06:14.340Z,3.20
2024-01-19T03:07:17.656Z,3.42
2024-01-19T03:08:21.007Z,3.42
2024-01-19T03:09:23.841Z,3.42
2024-01-19T03:10:25.735Z,3.00
2024-01-19T03:11:29.023Z,3.25
2024-01-19T03:12:31.947Z,3.03
2024-01-19T03:13:33.815Z,3.15
2024-01-19T03:14:36.762Z,3.10
2024-01-19T03:15:38.584Z,3.00
2024-01-19T03:16:43.127Z,3.55
2024-01-19T03:17:45.066Z,3.47
2024-01-19T03:18:48.303Z,2.92
2024-01-19T03:19:50.173Z,3.78
2024-01-19T03:20:53.120Z,2.85
2024-01-19T03:21:55.164Z,3.10
2024-01-19T03:22:58.031Z,3.08
2024-01-19T03:23:59.954Z,4.30
2024-01-19T03:25:03.721Z,3.20
2024-01-19T03:26:06.016Z,2.92
2024-01-19T03:27:10.180Z,3.35
2024-01-19T03:28:12.960Z,3.60
2024-01-19T03:29:17.094Z,3.17
2024-01-19T03:30:19.489Z,3.05
2024-01-19T03:31:22.294Z,3.17
2024-01-19T03:32:24.156Z,3.30
2024-01-19T03:33:27.487Z,2.72
2024-01-19T03:34:29.620Z,3.30
2024-01-19T03:35:32.571Z,3.13
2024-01-19T03:36:34.595Z,3.42
2024-01-19T03:37:37.465Z,3.60
2024-01-19T03:38:39.334Z,3.92
2024-01-19T03:39:41.238Z,3.08
2024-01-19T03:40:44.280Z,3.30
2024-01-19T03:41:46.154Z,3.22
2024-01-19T03:42:50.389Z,3.35
2024-01-19T03:43:52.270Z,3.47
2024-01-19T03:44:55.359Z,3.30
2024-01-19T03:45:57.454Z,4.60
2024-01-19T03:47:01.270Z,3.47
2024-01-19T03:48:04.658Z,4.35
2024-01-19T03:49:07.921Z,3.47
2024-01-19T03:50:10.620Z,3.70
2024-01-19T03:51:13.639Z,3.10
2024-01-19T03:52:17.345Z,3.70
2024-01-19T03:53:20.228Z,3.20
2024-01-19T03:54:22.163Z,4.75
2024-01-19T03:55:25.169Z,3.42
2024-01-19T03:56:27.438Z,3.03
2024-01-19T03:57:29.303Z,3.40
2024-01-19T03:58:33.536Z,3.33
2024-01-19T03:59:35.704Z,3.10
2024-01-19T04:00:38.596Z,3.20
2024-01-19T04:01:40.411Z,3.20
2024-01-19T04:02:43.381Z,3.78
2024-01-19T04:03:46.001Z,3.22
2024-01-19T04:04:49.478Z,3.08
2024-01-19T04:05:51.468Z,4.20
2024-01-19T04:06:54.718Z,3.70
2024-01-19T04:07:56.694Z,3.25
2024-01-19T04:08:59.633Z,3.70
2024-01-19T04:10:01.657Z,4.10
2024-01-19T04:11:04.607Z,3.25
2024-01-19T04:12:12.102Z,3.80
2024-01-19T04:13:15.341Z,3.40
2024-01-19T04:14:18.840Z,4.07
2024-01-19T04:15:24.327Z,4.05
2024-01-19T04:16:26.228Z,3.40
2024-01-19T04:17:29.208Z,4.07
2024-01-19T04:18:31.407Z,3.35
2024-01-19T04:19:34.383Z,4.60
2024-01-19T04:20:36.849Z,3.58
2024-01-19T04:21:39.790Z,3.72
2024-01-19T04:22:42.119Z,4.53
2024-01-19T04:23:45.923Z,3.92
2024-01-19T04:24:47.866Z,4.85
2024-01-19T04:25:50.653Z,4.35
2024-01-19T04:26:52.755Z,3.47
2024-01-19T04:27:55.619Z,3.70
2024-01-19T04:28:57.496Z,3.78
2024-01-19T04:30:01.889Z,4.00
2024-01-19T04:31:03.974Z,3.97
2024-01-19T04:32:07.280Z,3.10
2024-01-19T04:33:09.249Z,3.80
2024-01-19T04:34:12.438Z,3.55
2024-01-19T04:35:14.481Z,4.15
2024-01-19T04:36:18.923Z,3.60
2024-01-19T04:37:21.831Z,3.72
2024-01-19T04:38:25.026Z,3.05
2024-01-19T04:39:26.956Z,4.00
2024-01-19T04:40:29.824Z,4.07
2024-01-19T04:41:34.005Z,3.95
2024-01-19T04:42:36.949Z,4.03
2024-01-19T04:43:38.899Z,3.70
2024-01-19T04:44:41.837Z,3.95
2024-01-19T04:45:45.467Z,3.95
2024-01-19T04:46:48.451Z,3.33
2024-01-19T04:47:50.406Z,3.92
2024-01-19T04:48:52.480Z,4.45
2024-01-19T04:49:55.493Z,4.20
2024-01-19T04:50:57.438Z,3.95
2024-01-19T04:52:00.381Z,3.80
2024-01-19T04:53:02.414Z,4.03
2024-01-19T04:54:05.566Z,4.18
2024-01-19T04:55:08.257Z,3.58
2024-01-19T04:56:10.312Z,4.70
2024-01-19T04:57:13.185Z,5.15
2024-01-19T04:58:15.065Z,3.80
2024-01-19T04:59:17.898Z,4.35
2024-01-19T05:00:23.051Z,4.97
2024-01-19T05:01:27.322Z,3.50
2024-01-19T05:02:30.952Z,3.60
2024-01-19T05:03:33.938Z,4.50
2024-01-19T05:04:35.934Z,3.67
2024-01-19T05:05:39.465Z,4.70
2024-01-19T05:06:43.226Z,3.25
2024-01-19T05:07:46.235Z,4.32
2024-01-19T05:08:48.228Z,3.28
2024-01-19T05:09:50.142Z,3.40
2024-01-19T05:10:53.041Z,4.00
2024-01-19T05:11:55.054Z,3.95
2024-01-19T05:12:57.923Z,5.45
2024-01-19T05:13:59.816Z,5.28
2024-01-19T05:15:03.251Z,4.30
2024-01-19T05:16:06.114Z,4.25
2024-01-19T05:17:10.244Z,4.45
2024-01-19T05:18:12.805Z,3.72
2024-01-19T05:19:15.817Z,4.07
2024-01-19T05:20:19.604Z,3.63
2024-01-19T05:21:22.607Z,4.78
2024-01-19T05:22:24.513Z,4.75
2024-01-19T05:23:27.410Z,4.65
2024-01-19T05:24:29.365Z,4.55
2024-01-19T05:25:32.234Z,3.83
2024-01-19T05:26:34.487Z,3.63
2024-01-19T05:27:40.355Z,3.78
2024-01-19T05:28:42.689Z,4.53
2024-01-19T05:29:45.799Z,3.92
2024-01-19T05:30:49.660Z,4.70
2024-01-19T05:31:52.642Z,3.88
2024-01-19T05:32:56.330Z,4.18
2024-01-19T05:33:59.714Z,5.07
2024-01-19T05:35:01.781Z,3.90
2024-01-19T05:36:05.175Z,4.03
2024-01-19T05:37:07.347Z,3.95
2024-01-19T05:38:12.684Z,4.75
2024-01-19T05:39:14.587Z,5.82
2024-01-19T05:40:19.525Z,3.58
2024-01-19T05:41:22.621Z,4.10
2024-01-19T05:42:25.663Z,4.18
2024-01-19T05:43:27.474Z,3.75
2024-01-19T05:44:30.505Z,3.05
2024-01-19T05:45:32.357Z,4.28
2024-01-19T05:46:35.220Z,4.65
2024-01-19T05:47:37.072Z,4.50
2024-01-19T05:48:40.654Z,4.43
2024-01-19T05:49:43.707Z,4.43
2024-01-19T05:50:45.608Z,4.13
2024-01-19T05:51:48.571Z,3.63
2024-01-19T05:52:50.556Z,4.05
2024-01-19T05:53:52.550Z,4.22
2024-01-19T05:54:55.499Z,4.43
2024-01-19T05:55:57.326Z,4.88
2024-01-19T05:57:00.211Z,3.60
2024-01-19T05:58:04.527Z,4.55
2024-01-19T05:59:07.515Z,4.60
2024-01-19T06:00:10.843Z,5.30
2024-01-19T06:01:16.644Z,3.72
2024-01-19T06:02:18.783Z,4.18
2024-01-19T06:03:21.395Z,4.57
2024-01-19T06:04:25.790Z,4.25
2024-01-19T06:05:27.694Z,4.10
2024-01-19T06:06:30.654Z,4.50
2024-01-19T06:07:33.528Z,3.67
2024-01-19T06:08:36.503Z,4.57
2024-01-19T06:09:38.470Z,4.90
2024-01-19T06:10:41.426Z,3.90
2024-01-19T06:11:43.455Z,5.28
2024-01-19T06:12:46.462Z,3.83
2024-01-19T06:13:48.967Z,4.65
2024-01-19T06:14:52.084Z,3.78
2024-01-19T06:15:54.068Z,4.70
2024-01-19T06:16:56.953Z,4.15
2024-01-19T06:17:58.902Z,3.53
2024-01-19T06:19:01.965Z,4.85
2024-01-19T06:20:06.413Z,3.90
2024-01-19T06:21:11.748Z,4.47
2024-01-19T06:22:13.644Z,3.97
2024-01-19T06:23:16.536Z,4.10
2024-01-19T06:24:18.795Z,3.90
2024-01-19T06:25:21.694Z,3.55
2024-01-19T06:26:24.492Z,4.38
2024-01-19T06:27:27.631Z,4.13
2024-01-19T06:28:29.518Z,3.42
2024-01-19T06:29:32.445Z,3.92
2024-01-19T06:30:34.422Z,3.95
2024-01-19T06:31:44.884Z,3.83
2024-01-19T06:32:46.856Z,4.25
2024-01-19T06:33:49.762Z,3.90
2024-01-19T06:34:51.876Z,3.92
2024-01-19T06:35:56.268Z,4.20
2024-01-19T06:36:58.215Z,4.38
2024-01-19T06:38:00.082Z,3.97
2024-01-19T06:39:03.466Z,4.50
2024-01-19T06:40:07.134Z,4.03
2024-01-19T06:41:10.145Z,4.32
2024-01-19T06:42:12.002Z,4.45
2024-01-19T06:43:14.957Z,4.07
2024-01-19T06:44:16.908Z,3.53
2024-01-19T06:45:19.969Z,4.80
2024-01-19T06:46:22.726Z,5.10
2024-01-19T06:47:26.111Z,3.97
2024-01-19T06:48:28.085Z,4.10
2024-01-19T06:49:31.338Z,4.90
2024-01-19T06:50:33.749Z,4.88
2024-01-19T06:51:38.020Z,4.53
2024-01-19T06:52:40.334Z,3.42
2024-01-19T06:53:43.320Z,3.70
2024-01-19T06:54:45.217Z,3.88
2024-01-19T06:55:48.057Z,4.60
2024-01-19T06:56:49.996Z,4.00
2024-01-19T06:57:51.918Z,3.58
2024-01-19T06:58:55.322Z,3.85
2024-01-19T06:59:57.266Z,5.15
2024-01-19T07:01:00.386Z,3.88
2024-01-19T07:02:02.290Z,3.60
2024-01-19T07:03:05.882Z,3.65
2024-01-19T07:04:07.943Z,4.07
2024-01-19T07:05:10.907Z,3.72
2024-01-19T07:06:12.973Z,3.88
2024-01-19T07:07:17.226Z,3.88
2024-01-19T07:08:19.144Z,4.03
2024-01-19T07:09:22.024Z,3.58
2024-01-19T07:10:24.346Z,4.13
2024-01-19T07:11:27.274Z,4.20
2024-01-19T07:12:29.263Z,4.50
2024-01-19T07:13:32.181Z,3.97
2024-01-19T07:14:34.439Z,3.88
2024-01-19T07:15:37.377Z,4.20
2024-01-19T07:16:40.198Z,4.50
2024-01-19T07:17:42.143Z,4.15
2024-01-19T07:18:45.339Z,4.60
2024-01-19T07:19:47.387Z,4.05
2024-01-19T07:20:50.399Z,3.75
2024-01-19T07:21:52.387Z,4.30
2024-01-19T07:22:56.833Z,4.57
2024-01-19T07:23:59.521Z,3.85
2024-01-19T07:25:02.494Z,3.42
2024-01-19T07:26:05.061Z,4.80
2024-01-19T07:27:08.070Z,4.75
2024-01-19T07:28:10.020Z,4.50
2024-01-19T07:29:13.035Z,5.28
2024-01-19T07:30:15.098Z,4.20
2024-01-19T07:31:18.091Z,3.53
2024-01-19T07:32:22.621Z,4.95
2024-01-19T07:33:31.664Z,4.45
2024-01-19T07:34:36.214Z,4.05
2024-01-19T07:35:39.894Z,4.28
2024-01-19T07:36:43.094Z,4.20
2024-01-19T07:37:45.076Z,4.32
2024-01-19T07:38:49.625Z,4.25
2024-01-19T07:39:51.606Z,4.50
2024-01-19T07:40:54.607Z,4.00
2024-01-19T07:41:57.045Z,4.30
2024-01-19T07:42:59.920Z,4.15
2024-01-19T07:44:01.789Z,4.20
2024-01-19T07:45:05.240Z,3.42
2024-01-19T07:46:07.397Z,4.40
2024-01-19T07:47:10.459Z,5.95
2024-01-19T07:48:12.807Z,4.25
2024-01-19T07:49:21.931Z,3.53
2024-01-19T07:50:24.131Z,5.20
2024-01-19T07:51:28.278Z,4.45
2024-01-19T07:52:30.152Z,4.72
2024-01-19T07:53:32.931Z,4.72
2024-01-19T07:54:37.328Z,4.20
2024-01-19T07:55:39.375Z,3.40
2024-01-19T07:56:42.341Z,4.72
2024-01-19T07:57:44.265Z,3.85
2024-01-19T07:58:46.167Z,4.32
2024-01-19T07:59:49.158Z,3.47
2024-01-19T08:00:51.220Z,4.15
2024-01-19T08:01:55.216Z,3.60
2024-01-19T08:02:57.301Z,4.13
2024-01-19T08:04:03.041Z,3.83
2024-01-19T08:05:06.271Z,4.13
2024-01-19T08:06:08.472Z,4.78
2024-01-19T08:07:11.362Z,4.40
2024-01-19T08:08:13.409Z,4.53
2024-01-19T08:09:16.486Z,4.78
2024-01-19T08:10:20.960Z,4.38
2024-01-19T08:11:24.407Z,4.50
2024-01-19T08:12:26.610Z,3.72
2024-01-19T08:13:29.584Z,4.95
2024-01-19T08:14:31.552Z,4.22
2024-01-19T08:15:35.988Z,3.95
2024-01-19T08:16:37.885Z,4.00
2024-01-19T08:17:41.419Z,3.80
2024-01-19T08:18:43.524Z,4.35
2024-01-19T08:19:46.909Z,3.30
2024-01-19T08:20:48.883Z,3.42
2024-01-19T08:21:51.757Z,4.72
2024-01-19T08:22:54.821Z,4.78
2024-01-19T08:23:58.572Z,4.00
2024-01-19T08:25:00.523Z,3.42
2024-01-19T08:26:08.162Z,3.42
2024-01-19T08:27:10.407Z,3.90
2024-01-19T08:28:13.279Z,4.70
2024-01-19T08:29:15.207Z,3.80
2024-01-19T08:30:20.001Z,4.35
2024-01-19T08:31:21.923Z,4.15
2024-01-19T08:32:25.214Z,3.90
2024-01-19T08:33:51.843Z,3.33
2024-01-19T08:34:54.928Z,3.78
2024-01-19T08:35:57.931Z,4.15
2024-01-19T08:37:00.866Z,4.38
2024-01-19T08:38:03.152Z,4.53
2024-01-19T08:39:06.092Z,5.00
2024-01-19T08:40:09.741Z,4.10
2024-01-19T08:41:15.447Z,4.45
2024-01-19T08:42:17.308Z,3.85
2024-01-19T08:43:20.198Z,4.65
2024-01-19T08:44:23.122Z,4.15
2024-01-19T08:45:29.865Z,3.55
2024-01-19T08:46:32.940Z,4.75
2024-01-19T08:47:37.027Z,3.50
2024-01-19T08:48:40.885Z,4.43
2024-01-19T08:49:44.097Z,4.63
2024-01-19T08:50:46.244Z,3.45
2024-01-19T08:51:51.045Z,3.95
2024-01-19T08:52:54.106Z,4.28
2024-01-19T08:53:57.019Z,4.43
2024-01-19T08:54:59.375Z,3.80
2024-01-19T08:56:02.232Z,4.32
2024-01-19T08:57:06.288Z,4.47
2024-01-19T08:58:09.334Z,3.90
2024-01-19T08:59:13.496Z,4.45
2024-01-19T09:00:16.964Z,3.85
2024-01-19T09:01:19.047Z,3.95
2024-01-19T09:02:23.052Z,4.60
2024-01-19T09:03:25.547Z,4.05
2024-01-19T09:04:29.365Z,3.70
2024-01-19T09:05:31.930Z,4.18
2024-01-19T09:06:34.452Z,4.68
2024-01-19T09:07:37.500Z,3.95
2024-01-19T09:08:41.302Z,4.53
2024-01-19T09:09:44.380Z,4.72
2024-01-19T09:10:46.359Z,3.95
2024-01-19T09:12:02.544Z,4.15
2024-01-19T09:13:06.350Z,3.85
2024-01-19T09:14:12.427Z,4.75
2024-01-19T09:15:17.346Z,4.63
2024-01-19T09:16:20.824Z,4.60
2024-01-19T09:17:22.940Z,3.60
2024-01-19T09:18:26.025Z,4.00
2024-01-19T09:19:31.075Z,4.25
2024-01-19T09:20:34.431Z,4.40
2024-01-19T09:21:36.593Z,4.30
2024-01-19T09:22:39.480Z,4.90
2024-01-19T09:23:41.392Z,4.90
2024-01-19T09:24:47.080Z,4.70
2024-01-19T09:25:49.270Z,4.55
2024-01-19T09:26:52.257Z,4.25
2024-01-19T09:27:54.908Z,4.60
2024-01-19T09:28:59.308Z,4.43
2024-01-19T09:30:01.402Z,5.00
2024-01-19T09:31:04.344Z,5.63
2024-01-19T09:32:06.869Z,5.13
2024-01-19T09:33:09.873Z,4.15
2024-01-19T09:34:12.182Z,4.68
2024-01-19T09:35:15.464Z,5.25
2024-01-19T09:36:18.020Z,3.92
2024-01-19T09:37:21.039Z,4.13
2024-01-19T09:38:22.954Z,5.32
2024-01-19T09:39:25.869Z,5.22
2024-01-19T09:40:27.925Z,5.38
2024-01-19T09:41:35.925Z,4.13
2024-01-19T09:42:40.946Z,4.55
2024-01-19T09:43:46.715Z,6.47
2024-01-19T09:44:59.655Z,4.38
2024-01-19T09:46:05.873Z,4.03
2024-01-19T09:47:18.543Z,4.75
2024-01-19T09:48:24.354Z,4.53
2024-01-19T09:49:40.524Z,3.72
2024-01-19T09:50:46.331Z,5.28
2024-01-19T09:51:57.811Z,4.50
2024-01-19T09:53:00.769Z,4.68
2024-01-19T09:54:10.137Z,4.68
2024-01-19T09:55:12.998Z,5.10
2024-01-19T09:56:16.280Z,4.93
2024-01-19T09:57:18.185Z,4.82
2024-01-19T09:58:22.914Z,5.57
2024-01-19T09:59:25.473Z,4.43
2024-01-19T10:00:29.822Z,4.63
2024-01-19T10:01:32.219Z,5.10
2024-01-19T10:02:34.967Z,4.40
2024-01-19T10:03:38.560Z,5.13
2024-01-19T10:04:40.829Z,5.78
2024-01-19T10:05:44.050Z,6.28
2024-01-19T10:06:47.424Z,4.97
2024-01-19T10:07:54.486Z,5.10
2024-01-19T10:08:59.578Z,4.80
2024-01-19T10:10:02.839Z,5.30
2024-01-19T10:11:07.195Z,5.88
2024-01-19T10:12:10.524Z,4.97
2024-01-19T10:13:13.930Z,6.10
2024-01-19T10:14:15.935Z,6.03
2024-01-19T10:15:19.596Z,5.38
2024-01-19T10:16:22.870Z,5.13
2024-01-19T10:17:26.628Z,6.13
2024-01-19T10:18:31.387Z,4.78
2024-01-19T10:19:37.962Z,4.95
2024-01-19T10:20:43.315Z,4.80
2024-01-19T10:21:46.443Z,5.93
2024-01-19T10:22:48.364Z,5.47
2024-01-19T10:23:51.332Z,4.80
2024-01-19T10:24:59.917Z,4.93
2024-01-19T10:26:15.738Z,7.30
2024-01-19T10:27:17.850Z,5.38
2024-01-19T10:28:31.659Z,5.15
2024-01-19T10:29:34.432Z,4.38
2024-01-19T10:30:37.301Z,5.70
2024-01-19T10:31:42.204Z,6.28
2024-01-19T10:32:47.010Z,5.68
2024-01-19T10:33:50.536Z,4.95
2024-01-19T10:35:05.154Z,5.80
2024-01-19T10:36:08.354Z,5.25
2024-01-19T10:37:10.249Z,6.00
2024-01-19T10:38:13.266Z,5.95
2024-01-19T10:39:17.405Z,5.53
2024-01-19T10:40:24.589Z,4.93
2024-01-19T10:41:27.173Z,5.28
2024-01-19T10:42:40.180Z,7.15
2024-01-19T10:43:43.121Z,5.20
2024-01-19T10:44:45.049Z,5.53
2024-01-19T10:45:48.026Z,6.63
2024-01-19T10:46:51.617Z,5.50
2024-01-19T10:47:57.154Z,5.20
2024-01-19T10:49:04.899Z,4.97
2024-01-19T10:50:09.835Z,6.50
2024-01-19T10:51:12.967Z,6.00
2024-01-19T10:52:16.279Z,6.35
2024-01-19T10:53:18.313Z,5.53
2024-01-19T10:54:26.729Z,5.93
2024-01-19T10:55:30.153Z,5.30
2024-01-19T10:56:32.388Z,5.55
2024-01-19T10:57:35.411Z,6.20
2024-01-19T10:58:37.352Z,5.35
2024-01-19T10:59:40.273Z,5.70
2024-01-19T11:00:42.839Z,6.38
2024-01-19T11:01:45.933Z,5.95
2024-01-19T11:02:51.223Z,6.78
2024-01-19T11:03:54.312Z,6.50
2024-01-19T11:04:56.336Z,5.70
2024-01-19T11:06:01.324Z,6.20
2024-01-19T11:07:04.840Z,6.32
2024-01-19T11:08:07.983Z,7.03
2024-01-19T11:09:09.953Z,7.60
2024-01-19T11:10:11.913Z,6.85
2024-01-19T11:11:15.662Z,6.55
2024-01-19T11:12:19.623Z,6.10
2024-01-19T11:13:23.705Z,7.25
2024-01-19T11:14:27.070Z,6.40
2024-01-19T11:15:36.352Z,7.35
2024-01-19T11:16:44.539Z,5.50
2024-01-19T11:17:51.146Z,6.10
2024-01-19T11:18:54.623Z,7.65
2024-01-19T11:19:57.923Z,6.50
2024-01-19T11:21:00.057Z,6.82
2024-01-19T11:22:03.573Z,7.75
2024-01-19T11:23:07.024Z,7.15
2024-01-19T11:24:11.334Z,7.57
2024-01-19T11:25:18.951Z,7.60
2024-01-19T11:26:27.797Z,6.75
2024-01-19T11:27:34.397Z,7.72
2024-01-19T11:28:47.436Z,7.13
2024-01-19T11:30:10.372Z,5.50
2024-01-19T11:31:17.110Z,7.00
2024-01-19T11:32:19.513Z,6.70
2024-01-19T11:33:24.170Z,7.05
2024-01-19T11:34:52.014Z,6.50
2024-01-19T11:35:55.390Z,6.72
2024-01-19T11:36:58.208Z,6.80
2024-01-19T11:38:01.238Z,6.90
2024-01-19T11:39:06.980Z,5.63
2024-01-19T11:40:09.222Z,8.05
2024-01-19T11:41:12.859Z,7.40
2024-01-19T11:42:45.934Z,6.60
2024-01-19T11:43:48.865Z,6.97
2024-01-19T11:44:50.952Z,7.63
2024-01-19T11:45:53.891Z,7.35
2024-01-19T11:46:56.764Z,6.95
2024-01-19T11:47:59.104Z,6.50
2024-01-19T11:49:03.456Z,6.50
2024-01-19T11:50:06.976Z,6.40
2024-01-19T11:51:10.452Z,7.47
2024-01-19T11:52:50.940Z,7.50
2024-01-19T11:53:58.350Z,6.28
2024-01-19T11:55:01.479Z,8.00
2024-01-19T11:56:22.938Z,7.53
2024-01-19T11:57:25.600Z,7.45
2024-01-19T11:58:32.173Z,7.13
2024-01-19T11:59:35.692Z,6.45
2024-01-19T12:00:37.802Z,7.30
2024-01-19T12:01:41.582Z,7.10
2024-01-19T12:02:45.302Z,7.22
2024-01-19T12:03:53.804Z,6.40
2024-01-19T12:04:59.286Z,6.65
2024-01-19T12:06:03.719Z,7.35
2024-01-19T12:07:08.118Z,7.35
2024-01-19T12:08:13.953Z,7.38
2024-01-19T12:09:18.053Z,6.50
2024-01-19T12:10:20.710Z,6.53
2024-01-19T12:11:23.351Z,7.22
2024-01-19T12:12:26.277Z,6.63
2024-01-19T12:13:28.231Z,6.97
2024-01-19T12:14:31.311Z,7.45
2024-01-19T12:15:33.311Z,6.28
2024-01-19T12:16:38.056Z,7.55
2024-01-19T12:17:41.873Z,7.50
2024-01-19T12:18:45.624Z,7.50
2024-01-19T12:19:47.670Z,7.30
2024-01-19T12:20:54.367Z,7.07
2024-01-19T12:21:58.978Z,8.45
2024-01-19T12:23:01.433Z,7.07
2024-01-19T12:24:04.378Z,6.43
2024-01-19T12:25:16.178Z,6.93
2024-01-19T12:26:21.753Z,6.75
2024-01-19T12:27:24.377Z,7.10
2024-01-19T12:28:28.045Z,7.53
2024-01-19T12:29:30.735Z,6.75
2024-01-19T12:30:34.663Z,6.85
2024-01-19T12:31:40.510Z,7.43
2024-01-19T12:32:44.693Z,7.07
2024-01-19T12:33:46.661Z,7.45
2024-01-19T12:34:59.670Z,6.90
2024-01-19T12:36:05.868Z,7.55
2024-01-19T12:37:08.866Z,7.32
2024-01-19T12:38:11.075Z,6.70
2024-01-19T12:39:15.370Z,6.88
2024-01-19T12:40:19.855Z,6.60
2024-01-19T12:41:22.789Z,7.45
2024-01-19T12:42:25.882Z,6.78
2024-01-19T12:43:32.569Z,6.32
2024-01-19T12:44:35.536Z,6.60
2024-01-19T12:45:37.570Z,5.30
2024-01-19T12:46:48.182Z,6.18
2024-01-19T12:47:51.185Z,5.78
2024-01-19T12:49:04.537Z,6.80
2024-01-19T12:50:11.121Z,7.30
2024-01-19T12:51:18.484Z,6.75
2024-01-19T12:52:20.532Z,6.20
2024-01-19T12:53:23.447Z,5.90
2024-01-19T12:54:25.345Z,8.13
2024-01-19T12:55:29.171Z,8.10
2024-01-19T12:56:33.339Z,7.10
2024-01-19T12:57:36.372Z,6.97
2024-01-19T12:58:38.257Z,6.10
2024-01-19T12:59:41.250Z,7.95
2024-01-19T13:00:43.321Z,7.15
2024-01-19T13:01:48.038Z,6.25
2024-01-19T13:02:54.499Z,7.22
2024-01-19T13:03:58.544Z,6.90
2024-01-19T13:05:00.709Z,7.35
2024-01-19T13:06:05.415Z,7.35
2024-01-19T13:07:11.847Z,6.00
2024-01-19T13:08:19.500Z,6.78
2024-01-19T13:09:23.350Z,6.45
2024-01-19T13:10:25.696Z,6.80
2024-01-19T13:11:28.687Z,6.80
2024-01-19T13:12:30.638Z,6.80
2024-01-19T13:13:32.635Z,6.63
2024-01-19T13:14:35.944Z,6.82
2024-01-19T13:15:38.064Z,7.25
2024-01-19T13:16:53.708Z,6.35
2024-01-19T13:18:06.849Z,8.20
2024-01-19T13:19:11.475Z,7.70
2024-01-19T13:20:24.614Z,6.95
2024-01-19T13:21:27.702Z,6.63
2024-01-19T13:22:31.660Z,7.47
2024-01-19T13:23:34.608Z,6.63
2024-01-19T13:24:37.166Z,5.82
2024-01-19T13:25:40.334Z,6.50
2024-01-19T13:26:42.377Z,8.05
2024-01-19T13:27:45.667Z,6.70
2024-01-19T13:28:48.515Z,6.15
2024-01-19T13:29:52.018Z,7.63
2024-01-19T13:30:54.075Z,6.55
2024-01-19T13:31:57.910Z,6.18
2024-01-19T13:33:02.185Z,6.43
2024-01-19T13:34:08.298Z,7.25
2024-01-19T13:35:11.884Z,6.97
2024-01-19T13:36:17.620Z,6.63
2024-01-19T13:37:19.612Z,7.25
2024-01-19T13:38:24.725Z,6.60
2024-01-19T13:39:27.891Z,7.05
2024-01-19T13:40:31.293Z,5.03
2024-01-19T13:41:33.228Z,6.35
2024-01-19T13:42:55.453Z,7.20
2024-01-19T13:44:00.714Z,6.40
2024-01-19T13:45:06.207Z,6.32
2024-01-19T13:46:08.262Z,7.55
2024-01-19T13:47:11.283Z,7.20
2024-01-19T13:48:13.292Z,6.45
2024-01-19T13:49:15.268Z,5.78
2024-01-19T13:50:18.411Z,7.38
2024-01-19T13:51:20.676Z,6.78
2024-01-19T13:52:23.693Z,7.25
2024-01-19T13:53:26.984Z,6.18
2024-01-19T13:54:29.879Z,6.07
2024-01-19T13:55:31.803Z,7.30
2024-01-19T13:56:34.751Z,6.45
2024-01-19T13:57:36.685Z,6.85
2024-01-19T13:58:39.754Z,6.15
2024-01-19T13:59:41.672Z,7.30
2024-01-19T14:00:44.610Z,6.50
2024-01-19T14:01:47.185Z,6.88
2024-01-19T14:02:50.248Z,6.72
2024-01-19T14:03:53.612Z,6.25
2024-01-19T14:04:58.355Z,6.85
2024-01-19T14:06:00.617Z,7.25
2024-01-19T14:07:05.979Z,6.15
2024-01-19T14:08:10.853Z,6.78
2024-01-19T14:09:15.409Z,7.28